createdAt,value
2023-03-04T00:00:03.929Z,23.52
2023-03-04T00:02:30.772Z,22.40
2023-03-04T00:04:57.377Z,22.77
2023-03-04T00:07:24.020Z,20.92
2023-03-04T00:09:50.661Z,21.63
2023-03-04T00:12:19.562Z,22.20
2023-03-04T00:14:46.369Z,25.65
2023-03-04T00:17:13.089Z,23.33
2023-03-04T00:19:39.724Z,23.63
2023-03-04T00:22:06.554Z,23.52
2023-03-04T00:24:33.197Z,24.20
2023-03-04T00:26:59.967Z,25.50
2023-03-04T00:29:26.834Z,22.48
2023-03-04T00:31:53.651Z,23.95
2023-03-04T00:34:21.205Z,23.42
2023-03-04T00:36:48.190Z,22.23
2023-03-04T00:39:15.288Z,23.75
2023-03-04T00:41:42.070Z,22.55
2023-03-04T00:44:08.979Z,24.05
2023-03-04T00:46:35.954Z,23.10
2023-03-04T00:49:05.243Z,23.60
2023-03-04T00:51:31.937Z,24.70
2023-03-04T00:54:00.811Z,22.98
2023-03-04T00:56:27.868Z,24.40
2023-03-04T00:58:54.652Z,23.45
2023-03-04T01:01:23.659Z,23.42
2023-03-04T01:03:50.346Z,23.33
2023-03-04T01:06:17.177Z,24.67
2023-03-04T01:08:46.450Z,23.05
2023-03-04T01:11:13.200Z,24.48
2023-03-04T01:13:40.289Z,23.65
2023-03-04T01:16:07.999Z,23.58
2023-03-04T01:18:36.940Z,26.23
2023-03-04T01:21:03.730Z,24.30
2023-03-04T01:23:30.354Z,24.17
2023-03-04T01:25:59.423Z,22.98
2023-03-04T01:28:26.115Z,22.73
2023-03-04T01:30:52.841Z,22.92
2023-03-04T01:33:19.518Z,24.30
2023-03-04T01:35:46.219Z,23.77
2023-03-04T01:38:13.215Z,24.23
2023-03-04T01:40:40.273Z,25.50
2023-03-04T01:43:06.923Z,24.38
2023-03-04T01:45:34.901Z,25.10
2023-03-04T01:48:04.475Z,24.77
2023-03-04T01:50:33.884Z,24.08
2023-03-04T01:53:01.621Z,22.95
2023-03-04T01:55:30.059Z,23.48
2023-03-04T01:57:57.515Z,23.92
2023-03-04T02:00:26.867Z,24.50
2023-03-04T02:02:58.352Z,25.10
2023-03-04T02:05:25.707Z,23.92
2023-03-04T02:07:55.833Z,25.50
2023-03-04T02:10:22.933Z,25.58
2023-03-04T02:12:50.683Z,24.90
2023-03-04T02:15:17.733Z,25.33
2023-03-04T02:17:44.736Z,25.08
2023-03-04T02:20:22.999Z,24.92
2023-03-04T02:23:07.392Z,24.77
2023-03-04T02:26:02.270Z,25.95
2023-03-04T02:28:28.952Z,25.63
2023-03-04T02:31:00.001Z,25.17
2023-03-04T02:33:26.728Z,26.35
2023-03-04T02:35:53.472Z,26.88
2023-03-04T02:38:20.168Z,27.67
2023-03-04T02:40:51.875Z,28.10
2023-03-04T02:43:18.897Z,26.65
2023-03-04T02:45:50.576Z,28.10
2023-03-04T02:48:20.782Z,27.92
2023-03-04T02:50:53.051Z,27.15
2023-03-04T02:53:23.128Z,27.63
2023-03-04T02:55:49.882Z,26.33
2023-03-04T02:58:16.988Z,24.77
2023-03-04T03:00:43.791Z,25.02
2023-03-04T03:03:10.510Z,25.52
2023-03-04T03:05:38.408Z,24.95
2023-03-04T03:08:05.566Z,23.73
2023-03-04T03:10:34.653Z,25.48
2023-03-04T03:13:01.279Z,24.40
2023-03-04T03:15:28.089Z,23.30
2023-03-04T03:17:54.854Z,23.80
2023-03-04T03:20:21.574Z,23.63
2023-03-04T03:22:48.274Z,24.50
2023-03-04T03:25:18.431Z,22.98
2023-03-04T03:27:45.140Z,24.60
2023-03-04T03:30:13.633Z,23.95
2023-03-04T03:32:40.321Z,23.88
2023-03-04T03:35:07.293Z,23.95
2023-03-04T03:37:33.988Z,26.67
2023-03-04T03:40:00.770Z,28.60
2023-03-04T03:42:30.054Z,30.88
2023-03-04T03:44:56.838Z,30.48
2023-03-04T03:47:24.029Z,29.40
2023-03-04T03:49:52.804Z,30.08
2023-03-04T03:52:19.537Z,31.13
2023-03-04T03:54:46.260Z,29.63
2023-03-04T03:57:12.881Z,29.40
2023-03-04T03:59:39.625Z,29.70
2023-03-04T04:02:06.426Z,28.42
2023-03-04T04:04:33.215Z,31.23
2023-03-04T04:06:59.877Z,30.30
2023-03-04T04:09:26.772Z,29.90
2023-03-04T04:11:53.532Z,28.77
2023-03-04T04:14:20.205Z,28.95
2023-03-04T04:16:46.975Z,29.60
2023-03-04T04:19:18.367Z,29.20
2023-03-04T04:21:45.537Z,30.45
2023-03-04T04:24:12.524Z,30.50
2023-03-04T04:26:39.597Z,30.80
2023-03-04T04:29:06.390Z,30.35
2023-03-04T04:31:35.298Z,28.02
2023-03-04T04:34:04.396Z,30.48
2023-03-04T04:36:31.053Z,29.00
2023-03-04T04:38:57.694Z,28.90
2023-03-04T04:41:35.000Z,29.02
2023-03-04T04:44:01.696Z,29.58
2023-03-04T04:46:28.523Z,28.42
2023-03-04T04:48:55.864Z,29.38
2023-03-04T04:51:22.514Z,28.95
2023-03-04T04:53:51.897Z,28.70
2023-03-04T04:56:20.994Z,28.25
2023-03-04T04:58:50.470Z,28.92
2023-03-04T05:01:17.292Z,28.50
2023-03-04T05:03:47.080Z,29.45
2023-03-04T05:06:13.706Z,29.45
2023-03-04T05:08:40.467Z,29.05
2023-03-04T05:11:08.041Z,29.63
2023-03-04T05:13:37.247Z,29.52
2023-03-04T05:16:06.667Z,27.23
2023-03-04T05:18:33.506Z,28.05
2023-03-04T05:21:02.320Z,26.83
2023-03-04T05:23:34.154Z,28.35
2023-03-04T05:26:01.790Z,26.42
2023-03-04T05:28:28.471Z,27.23
2023-03-04T05:30:55.256Z,27.17
2023-03-04T05:33:22.048Z,27.98
2023-03-04T05:35:51.128Z,27.70
2023-03-04T05:38:22.545Z,30.15
2023-03-04T05:40:59.972Z,29.17
2023-03-04T05:43:28.151Z,28.30
2023-03-04T05:45:57.684Z,27.35
2023-03-04T05:48:24.372Z,28.15
2023-03-04T05:50:59.262Z,30.52
2023-03-04T05:53:29.273Z,26.75
2023-03-04T05:55:56.163Z,26.33
2023-03-04T05:58:23.206Z,28.70
2023-03-04T06:00:49.899Z,26.58
2023-03-04T06:03:19.092Z,27.98
2023-03-04T06:05:45.915Z,26.08
2023-03-04T06:08:15.731Z,28.38
2023-03-04T06:10:42.508Z,26.92
2023-03-04T06:13:09.801Z,28.08
2023-03-04T06:15:39.544Z,25.85
2023-03-04T06:18:07.352Z,28.02
2023-03-04T06:20:36.737Z,27.95
2023-03-04T06:23:07.152Z,29.30
2023-03-04T06:25:33.898Z,27.55
2023-03-04T06:28:00.635Z,26.58
2023-03-04T06:30:28.474Z,27.10
2023-03-04T06:32:55.190Z,27.02
2023-03-04T06:35:22.027Z,26.98
2023-03-04T06:37:48.864Z,26.60
2023-03-04T06:40:17.276Z,26.70
2023-03-04T06:42:44.175Z,28.27
2023-03-04T06:45:13.279Z,28.67
2023-03-04T06:47:40.059Z,27.75
2023-03-04T06:50:07.022Z,26.85
2023-03-04T06:52:36.395Z,29.60
2023-03-04T06:55:03.377Z,28.05
2023-03-04T06:57:30.258Z,28.88
2023-03-04T06:59:57.008Z,29.13
2023-03-04T07:02:24.102Z,28.30
2023-03-04T07:04:51.057Z,25.50
2023-03-04T07:07:17.706Z,26.92
2023-03-04T07:09:44.367Z,28.30
2023-03-04T07:12:11.030Z,28.45
2023-03-04T07:14:40.115Z,27.58
2023-03-04T07:17:06.848Z,27.90
2023-03-04T07:19:36.037Z,29.75
2023-03-04T07:22:04.862Z,29.17
2023-03-04T07:24:31.530Z,29.02
2023-03-04T07:26:58.153Z,30.10
2023-03-04T07:29:26.965Z,28.65
2023-03-04T07:31:54.002Z,28.80
2023-03-04T07:34:20.807Z,29.77
2023-03-04T07:36:47.515Z,30.27
2023-03-04T07:39:14.346Z,30.50
2023-03-04T07:41:41.314Z,29.42
2023-03-04T07:44:09.695Z,30.90
2023-03-04T07:46:37.711Z,31.77
2023-03-04T07:49:04.551Z,30.05
2023-03-04T07:51:31.583Z,31.08
2023-03-04T07:54:03.083Z,30.10
2023-03-04T07:56:32.738Z,30.13
2023-03-04T07:59:02.207Z,31.73
2023-03-04T08:01:34.892Z,32.70
2023-03-04T08:04:03.021Z,32.25
2023-03-04T08:06:30.265Z,32.72
2023-03-04T08:09:05.762Z,33.08
2023-03-04T08:11:33.592Z,33.15
2023-03-04T08:14:00.269Z,33.30
2023-03-04T08:16:27.340Z,34.78
2023-03-04T08:18:57.253Z,35.30
2023-03-04T08:21:27.967Z,34.55
2023-03-04T08:23:59.283Z,35.60
2023-03-04T08:26:33.873Z,36.30
2023-03-04T08:29:04.968Z,33.85
2023-03-04T08:31:34.725Z,35.78
2023-03-04T08:34:03.365Z,37.78
2023-03-04T08:36:31.894Z,36.60
2023-03-04T08:38:59.016Z,37.88
2023-03-04T08:41:27.405Z,38.65
2023-03-04T08:43:54.159Z,38.97
2023-03-04T08:46:21.078Z,37.70
2023-03-04T08:48:48.029Z,39.17
2023-03-04T08:51:17.408Z,39.65
2023-03-04T08:53:44.554Z,39.42
2023-03-04T08:56:14.491Z,37.63
2023-03-04T08:58:41.221Z,39.60
2023-03-04T09:01:10.545Z,36.97
2023-03-04T09:03:37.881Z,36.28
2023-03-04T09:06:05.880Z,37.00
2023-03-04T09:08:33.196Z,37.33
2023-03-04T09:11:02.299Z,37.88
2023-03-04T09:13:31.156Z,34.05
2023-03-04T09:15:58.190Z,34.72
2023-03-04T09:18:25.563Z,34.40
2023-03-04T09:20:54.717Z,34.63
2023-03-04T09:23:22.288Z,31.70
2023-03-04T09:25:51.184Z,30.83
2023-03-04T09:28:18.815Z,31.25
2023-03-04T09:30:45.847Z,26.90
2023-03-04T09:33:13.450Z,27.30
2023-03-04T09:35:42.972Z,29.00
2023-03-04T09:38:10.355Z,27.80
2023-03-04T09:40:44.443Z,27.15
2023-03-04T09:43:29.476Z,25.00
2023-03-04T09:46:00.272Z,26.38
2023-03-04T09:48:29.854Z,26.25
2023-03-04T09:50:59.637Z,26.35
2023-03-04T09:53:38.041Z,24.88
2023-03-04T09:56:07.101Z,25.55
2023-03-04T09:59:04.145Z,23.73
2023-03-04T10:01:44.462Z,23.48
2023-03-04T10:04:32.375Z,23.55
2023-03-04T10:07:03.373Z,21.58
2023-03-04T10:09:46.227Z,23.05
2023-03-04T10:12:19.068Z,21.10
2023-03-04T10:14:54.498Z,21.88
2023-03-04T10:17:44.169Z,21.75
2023-03-04T10:20:25.879Z,23.00
2023-03-04T10:22:58.582Z,23.27
2023-03-04T10:25:33.421Z,21.98
2023-03-04T10:28:05.102Z,21.58
2023-03-04T10:30:53.700Z,20.55
2023-03-04T10:33:30.640Z,20.65
2023-03-04T10:36:32.101Z,21.48
2023-03-04T10:39:00.791Z,20.10
2023-03-04T10:41:30.405Z,21.88
2023-03-04T10:44:18.838Z,22.25
2023-03-04T10:46:47.689Z,21.67
2023-03-04T10:49:20.071Z,21.50
2023-03-04T10:52:00.578Z,20.08
2023-03-04T10:54:48.053Z,20.00
2023-03-04T10:57:26.049Z,21.23
2023-03-04T10:59:56.601Z,20.33
2023-03-04T11:02:34.442Z,19.77
2023-03-04T11:05:23.532Z,20.00
2023-03-04T11:07:56.329Z,18.85
2023-03-04T11:10:23.954Z,18.48
2023-03-04T11:12:55.517Z,19.48
2023-03-04T11:15:27.672Z,19.95
2023-03-04T11:18:18.049Z,19.50
2023-03-04T11:20:48.417Z,20.95
2023-03-04T11:23:37.827Z,18.02
2023-03-04T11:26:16.116Z,19.63
2023-03-04T11:28:51.794Z,18.42
2023-03-04T11:31:33.392Z,20.55
2023-03-04T11:34:29.282Z,18.55
2023-03-04T11:37:21.325Z,18.42
2023-03-04T11:40:05.675Z,18.85
2023-03-04T11:42:49.335Z,21.17
2023-03-04T11:45:29.239Z,20.30
2023-03-04T11:48:34.664Z,19.63
2023-03-04T11:51:13.009Z,18.60
2023-03-04T11:54:02.645Z,18.83
2023-03-04T11:56:40.861Z,18.48
2023-03-04T11:59:30.182Z,19.42
2023-03-04T12:02:02.764Z,18.95
2023-03-04T12:05:12.303Z,19.75
2023-03-04T12:07:57.508Z,17.42
2023-03-04T12:10:53.558Z,18.60
2023-03-04T12:13:34.745Z,17.77
2023-03-04T12:16:27.257Z,20.60
2023-03-04T12:19:02.681Z,18.60
2023-03-04T12:21:43.637Z,17.30
2023-03-04T12:24:21.641Z,18.30
2023-03-04T12:26:55.310Z,18.30
2023-03-04T12:29:45.212Z,17.73
2023-03-04T12:32:24.179Z,17.52
2023-03-04T12:35:05.353Z,18.50
2023-03-04T12:37:52.850Z,16.85
2023-03-04T12:40:53.075Z,17.55
2023-03-04T12:43:47.948Z,18.15
2023-03-04T12:46:17.480Z,18.55
2023-03-04T12:49:03.536Z,17.40
2023-03-04T12:51:49.550Z,19.08
2023-03-04T12:54:32.353Z,18.27
2023-03-04T12:57:21.519Z,17.58
2023-03-04T12:59:59.991Z,18.02
2023-03-04T13:03:03.960Z,17.17
2023-03-04T13:06:08.136Z,16.45
2023-03-04T13:09:04.749Z,15.82
2023-03-04T13:11:43.174Z,16.25
2023-03-04T13:14:17.340Z,17.48
2023-03-04T13:16:54.469Z,16.20
2023-03-04T13:19:58.604Z,15.90
2023-03-04T13:22:29.594Z,16.67
2023-03-04T13:24:58.679Z,17.80
2023-03-04T13:27:48.634Z,16.40
2023-03-04T13:30:41.833Z,15.57
2023-03-04T13:33:11.527Z,15.52
2023-03-04T13:35:50.136Z,15.75
2023-03-04T13:38:24.428Z,17.08
2023-03-04T13:41:15.653Z,14.90
2023-03-04T13:43:46.317Z,16.65
2023-03-04T13:46:26.879Z,16.30
2023-03-04T13:49:00.392Z,15.95
2023-03-04T13:51:30.857Z,16.30
2023-03-04T13:54:04.746Z,17.48
2023-03-04T13:59:13.309Z,14.38
2023-03-04T14:01:45.211Z,15.27
2023-03-04T14:04:17.762Z,15.88
2023-03-04T14:06:49.082Z,15.10
2023-03-04T14:09:28.241Z,15.07
2023-03-04T14:12:17.828Z,15.25
2023-03-04T14:14:54.957Z,15.00
2023-03-04T14:17:36.586Z,14.95
2023-03-04T14:20:21.125Z,15.23
2023-03-04T14:22:47.807Z,15.00
2023-03-04T14:25:17.133Z,14.07
2023-03-04T14:27:44.224Z,15.77
2023-03-04T14:30:40.743Z,16.58
2023-03-04T14:33:14.972Z,18.20
2023-03-04T14:35:51.050Z,18.07
2023-03-04T14:38:23.572Z,18.63
2023-03-04T14:40:55.131Z,18.92
2023-03-04T14:43:23.483Z,18.63
2023-03-04T14:45:56.656Z,20.23
2023-03-04T14:48:33.353Z,22.13
2023-03-04T14:51:02.065Z,19.15
2023-03-04T14:53:33.272Z,20.15
2023-03-04T14:56:08.896Z,19.67
2023-03-04T14:58:38.185Z,19.67
2023-03-04T15:01:42.384Z,18.48
2023-03-04T15:04:11.727Z,20.58
2023-03-04T15:06:54.412Z,19.77
2023-03-04T15:09:27.970Z,19.20
2023-03-04T15:12:06.187Z,20.02
2023-03-04T15:14:50.633Z,19.10
2023-03-04T15:17:38.470Z,19.38
2023-03-04T15:20:11.131Z,20.45
2023-03-04T15:23:01.187Z,19.38
2023-03-04T15:25:28.897Z,18.15
2023-03-04T15:28:00.467Z,19.08
2023-03-04T15:30:31.226Z,19.35
2023-03-04T15:33:00.909Z,18.85
2023-03-04T15:35:30.745Z,18.70
2023-03-04T15:37:58.094Z,18.65
2023-03-04T15:40:34.363Z,18.45
2023-03-04T15:43:02.774Z,18.52
2023-03-04T15:45:38.173Z,19.42
2023-03-04T15:48:09.616Z,18.45
2023-03-04T15:50:39.744Z,18.73
2023-03-04T15:53:11.952Z,19.38
2023-03-04T15:55:40.840Z,17.95
2023-03-04T15:58:13.879Z,18.77
2023-03-04T16:00:40.670Z,18.85
2023-03-04T16:03:13.496Z,17.30
2023-03-04T16:05:40.200Z,17.27
2023-03-04T16:08:09.116Z,17.38
2023-03-04T16:10:35.873Z,16.95
2023-03-04T16:13:02.568Z,17.52
2023-03-04T16:15:30.836Z,17.98
2023-03-04T16:17:57.897Z,16.77
2023-03-04T16:20:28.718Z,17.38
2023-03-04T16:23:00.345Z,16.42
2023-03-04T16:25:28.138Z,17.15
2023-03-04T16:28:13.821Z,17.23
2023-03-04T16:30:45.056Z,16.55
2023-03-04T16:33:11.928Z,16.40
2023-03-04T16:35:43.039Z,16.98
2023-03-04T16:38:21.843Z,16.13
2023-03-04T16:40:49.641Z,17.30
2023-03-04T16:43:18.486Z,15.85
2023-03-04T16:45:48.382Z,16.02
2023-03-04T16:48:20.358Z,16.50
2023-03-04T16:50:47.178Z,15.02
2023-03-04T16:53:35.969Z,14.77
2023-03-04T16:56:10.846Z,14.75
2023-03-04T16:58:40.533Z,15.85
2023-03-04T17:01:11.298Z,15.18
2023-03-04T17:03:38.032Z,15.40
2023-03-04T17:06:07.583Z,13.60
2023-03-04T17:08:34.347Z,13.18
2023-03-04T17:11:00.996Z,15.02
2023-03-04T17:13:29.881Z,14.45
2023-03-04T17:16:01.085Z,14.52
2023-03-04T17:18:28.272Z,14.25
2023-03-04T17:21:01.166Z,14.45
2023-03-04T17:23:27.948Z,13.40
2023-03-04T17:25:59.144Z,13.35
2023-03-04T17:28:29.570Z,14.35
2023-03-04T17:30:56.350Z,13.20
2023-03-04T17:33:23.442Z,12.95
2023-03-04T17:35:52.683Z,13.55
2023-03-04T17:38:24.055Z,13.05
2023-03-04T17:40:50.903Z,13.20
2023-03-04T17:43:18.735Z,13.70
2023-03-04T17:45:45.862Z,12.45
2023-03-04T17:48:15.640Z,13.50
2023-03-04T17:50:52.381Z,12.80
2023-03-04T17:53:20.325Z,12.23
2023-03-04T17:55:52.029Z,12.23
2023-03-04T17:58:18.960Z,12.32
2023-03-04T18:00:46.056Z,12.35
2023-03-04T18:03:13.784Z,12.73
2023-03-04T18:05:40.763Z,14.45
2023-03-04T18:08:07.660Z,12.48
2023-03-04T18:10:34.992Z,11.75
2023-03-04T18:13:01.799Z,13.82
2023-03-04T18:15:28.518Z,12.90
2023-03-04T18:17:55.236Z,13.48
2023-03-04T18:20:21.997Z,13.07
2023-03-04T18:22:51.163Z,13.63
2023-03-04T18:25:18.179Z,13.27
2023-03-04T18:27:47.131Z,11.82
2023-03-04T18:30:20.966Z,11.50
2023-03-04T18:32:52.241Z,11.63
2023-03-04T18:35:19.819Z,11.10
2023-03-04T18:37:46.898Z,11.32
2023-03-04T18:40:14.453Z,10.70
2023-03-04T18:42:44.089Z,10.23
2023-03-04T18:45:17.939Z,10.02
2023-03-04T18:50:16.564Z,9.82
2023-03-04T18:52:47.061Z,9.82
2023-03-04T18:55:14.341Z,9.45
2023-03-04T18:57:43.897Z,9.52
2023-03-04T19:00:11.717Z,9.88
2023-03-04T19:02:43.836Z,9.60
2023-03-04T19:05:22.381Z,10.50
2023-03-04T19:07:49.281Z,10.07
2023-03-04T19:10:18.019Z,9.27
2023-03-04T19:12:47.788Z,8.60
2023-03-04T19:15:14.705Z,9.13
2023-03-04T19:17:46.037Z,9.90
2023-03-04T19:20:16.095Z,10.43
2023-03-04T19:22:43.890Z,10.40
2023-03-04T19:25:12.940Z,9.98
2023-03-04T19:27:39.795Z,9.57
2023-03-04T19:30:09.566Z,9.60
2023-03-04T19:32:36.436Z,8.82
2023-03-04T19:35:05.711Z,9.00
2023-03-04T19:37:32.562Z,10.27
2023-03-04T19:39:59.266Z,8.63
2023-03-04T19:42:26.088Z,9.90
2023-03-04T19:44:52.826Z,8.73
2023-03-04T19:47:22.304Z,10.02
2023-03-04T19:49:48.969Z,9.50
2023-03-04T19:52:15.681Z,9.38
2023-03-04T19:54:44.579Z,9.50
2023-03-04T19:57:11.306Z,9.75
2023-03-04T19:59:38.086Z,9.52
2023-03-04T20:02:04.846Z,8.90
2023-03-04T20:04:32.085Z,9.82
2023-03-04T20:07:00.996Z,9.27
2023-03-04T20:09:31.304Z,9.57
2023-03-04T20:11:59.462Z,10.02
2023-03-04T20:14:27.071Z,8.98
2023-03-04T20:17:00.770Z,9.95
2023-03-04T20:21:54.506Z,10.00
2023-03-04T20:24:23.236Z,10.25
2023-03-04T20:26:50.853Z,10.48
2023-03-04T20:29:18.306Z,9.07
2023-03-04T20:31:46.494Z,10.60
2023-03-04T20:34:13.831Z,10.10
2023-03-04T20:36:40.630Z,9.93
2023-03-04T20:39:26.864Z,10.15
2023-03-04T20:41:56.989Z,9.93
2023-03-04T20:44:27.294Z,10.82
2023-03-04T20:46:53.959Z,9.02
2023-03-04T20:49:24.158Z,9.07
2023-03-04T20:51:52.054Z,9.50
2023-03-04T20:54:19.550Z,8.75
2023-03-04T20:56:46.714Z,9.15
2023-03-04T20:59:13.546Z,10.15
2023-03-04T21:01:43.135Z,9.07
2023-03-04T21:04:10.357Z,10.07
2023-03-04T21:06:38.660Z,8.65
2023-03-04T21:09:09.403Z,9.27
2023-03-04T21:11:40.269Z,8.80
2023-03-04T21:14:22.333Z,8.07
2023-03-04T21:16:51.190Z,8.82
2023-03-04T21:19:22.968Z,8.60
2023-03-04T21:21:51.454Z,8.60
2023-03-04T21:24:21.913Z,9.55
2023-03-04T21:26:51.878Z,9.32
2023-03-04T21:29:20.965Z,10.40
2023-03-04T21:31:53.312Z,9.98
2023-03-04T21:34:34.895Z,10.85
2023-03-04T21:37:02.720Z,9.80
2023-03-04T21:39:32.893Z,10.00
2023-03-04T21:42:02.864Z,10.73
2023-03-04T21:44:45.206Z,10.38
2023-03-04T21:47:15.485Z,10.32
2023-03-04T21:49:42.290Z,9.52
2023-03-04T21:52:09.075Z,10.32
2023-03-04T21:54:35.948Z,9.57
2023-03-04T21:57:02.820Z,9.45
2023-03-04T21:59:31.894Z,9.65
2023-03-04T22:01:59.168Z,10.40
2023-03-04T22:04:30.596Z,8.90
2023-03-04T22:06:57.263Z,10.27
2023-03-04T22:09:24.404Z,9.73
2023-03-04T22:11:51.046Z,10.23
2023-03-04T22:14:20.590Z,9.65
2023-03-04T22:16:59.105Z,10.48
2023-03-04T22:19:29.830Z,9.45
2023-03-04T22:21:56.456Z,10.18
2023-03-04T22:24:26.264Z,9.73
2023-03-04T22:26:53.555Z,10.70
2023-03-04T22:29:20.410Z,9.57
2023-03-04T22:31:47.312Z,9.02
2023-03-04T22:34:18.621Z,8.85
2023-03-04T22:36:46.693Z,10.07
2023-03-04T22:39:15.441Z,9.70
2023-03-04T22:41:44.580Z,9.50
2023-03-04T22:44:11.377Z,9.73
2023-03-04T22:46:41.695Z,9.25
2023-03-04T22:49:13.867Z,9.35
2023-03-04T22:51:42.955Z,9.25
2023-03-04T22:54:17.549Z,8.30
2023-03-04T22:56:44.876Z,9.43
2023-03-04T22:59:11.991Z,9.45
2023-03-04T23:01:38.825Z,8.63
2023-03-04T23:04:09.979Z,9.60
2023-03-04T23:06:38.791Z,8.93
2023-03-04T23:09:05.749Z,10.05
2023-03-04T23:11:35.735Z,8.93
2023-03-04T23:14:06.384Z,9.52
2023-03-04T23:16:37.198Z,9.07
2023-03-04T23:19:05.627Z,9.05
2023-03-04T23:21:35.111Z,8.43
2023-03-04T23:24:03.271Z,8.48
2023-03-04T23:26:32.929Z,8.57
2023-03-04T23:29:01.566Z,8.85
2023-03-04T23:31:29.669Z,8.68
2023-03-04T23:33:57.452Z,8.85
2023-03-04T23:36:32.940Z,8.63
2023-03-04T23:39:03.711Z,7.70
2023-03-04T23:41:31.272Z,8.30
2023-03-04T23:44:01.298Z,8.48
2023-03-04T23:46:28.764Z,8.00
2023-03-04T23:48:56.183Z,9.00
2023-03-04T23:51:25.949Z,8.02
2023-03-04T23:53:55.008Z,7.78
2023-03-04T23:56:27.464Z,7.53
2023-03-04T23:58:54.958Z,8.20
